createdAt,value
2019-04-21T00:00:05.886Z,1028.3895
2019-04-21T00:00:16.724Z,1028.4371
2019-04-21T00:00:27.605Z,1028.4108
2019-04-21T00:00:39.678Z,1028.4223
2019-04-21T00:00:57.969Z,1028.4058
2019-04-21T00:01:08.673Z,1028.3994
2019-04-21T00:01:18.360Z,1028.3829
2019-04-21T00:01:35.556Z,1028.4157
2019-04-21T00:01:47.322Z,1028.3862
2019-04-21T00:01:56.323Z,1028.3895
2019-04-21T00:02:08.842Z,1028.3599
2019-04-21T00:02:26.337Z,1028.3895
2019-04-21T00:02:37.475Z,1028.3944
2019-04-21T00:02:48.565Z,1028.3437
2019-04-21T00:02:59.503Z,1028.35
2019-04-21T00:03:18.008Z,1028.3468
2019-04-21T00:03:33.135Z,1028.3043
2019-04-21T00:03:42.890Z,1028.3435
2019-04-21T00:03:55.501Z,1028.3353
2019-04-21T00:04:11.178Z,1028.332
2019-04-21T00:04:24.427Z,1028.3073
2019-04-21T00:04:37.885Z,1028.324
2019-04-21T00:04:49.660Z,1028.3287
2019-04-21T00:05:02.612Z,1028.2811
2019-04-21T00:05:24.347Z,1028.304
2019-04-21T00:05:38.030Z,1028.3139
2019-04-21T00:05:50.924Z,1028.2894
2019-04-21T00:06:02.797Z,1028.2958
2019-04-21T00:06:15.432Z,1028.317
2019-04-21T00:06:29.672Z,1028.253
2019-04-21T00:06:55.012Z,1028.2626
2019-04-21T00:07:08.242Z,1028.251
2019-04-21T00:07:19.126Z,1028.1971
2019-04-21T00:07:30.916Z,1028.1938
2019-04-21T00:07:41.850Z,1028.207
2019-04-21T00:07:56.856Z,1028.1982
2019-04-21T00:08:17.818Z,1028.2065
2019-04-21T00:08:30.424Z,1028.1997
2019-04-21T00:08:48.204Z,1028.1948
2019-04-21T00:08:55.872Z,1028.2227
2019-04-21T00:09:10.840Z,1028.1667
2019-04-21T00:09:17.686Z,1028.1798
2019-04-21T00:09:32.435Z,1028.2108
2019-04-21T00:09:45.293Z,1028.2136
2019-04-21T00:09:58.017Z,1028.1616
2019-04-21T00:10:11.606Z,1028.1204
2019-04-21T00:10:26.764Z,1028.1433
2019-04-21T00:10:32.867Z,1028.1612
2019-04-21T00:10:47.761Z,1028.1612
2019-04-21T00:11:02.561Z,1028.1466
2019-04-21T00:11:15.032Z,1028.1331
2019-04-21T00:11:27.983Z,1028.1433
2019-04-21T00:11:40.651Z,1028.1611
2019-04-21T00:11:46.567Z,1028.1166
2019-04-21T00:12:01.304Z,1028.1706
2019-04-21T00:12:21.745Z,1028.128
2019-04-21T00:12:40.087Z,1028.1376
2019-04-21T00:12:40.135Z,1028.1424
2019-04-21T00:12:51.453Z,1028.1376
2019-04-21T00:13:01.680Z,1028.1768
2019-04-21T00:13:11.828Z,1028.1324
2019-04-21T00:13:26.435Z,1028.1572
2019-04-21T00:13:42.362Z,1028.124
2019-04-21T00:13:52.068Z,1028.127
2019-04-21T00:14:05.519Z,1028.1171
2019-04-21T00:14:13.992Z,1028.1303
2019-04-21T00:14:30.137Z,1028.153
2019-04-21T00:14:43.291Z,1028.1118
2019-04-21T00:14:54.719Z,1028.097
2019-04-21T00:15:06.013Z,1028.1053
2019-04-21T00:15:16.635Z,1028.0998
2019-04-21T00:15:29.620Z,1028.1048
2019-04-21T00:15:40.533Z,1028.0998
2019-04-21T00:15:53.739Z,1028.116
2019-04-21T00:16:04.886Z,1028.0308
2019-04-21T00:16:16.037Z,1028.0701
2019-04-21T00:16:34.518Z,1028.0695
2019-04-21T00:16:43.977Z,1028.0499
2019-04-21T00:16:57.925Z,1028.0697
2019-04-21T00:17:09.466Z,1028.0285
2019-04-21T00:17:19.582Z,1028.0384
2019-04-21T00:17:30.250Z,1028.0333
2019-04-21T00:17:43.479Z,1028.0769
2019-04-21T00:18:00.293Z,1028.067
2019-04-21T00:18:10.232Z,1028.0178
2019-04-21T00:18:21.196Z,1028.0227
2019-04-21T00:18:40.550Z,1028.0288
2019-04-21T00:18:54.521Z,1028.0386
2019-04-21T00:19:04.973Z,1028.0354
2019-04-21T00:19:16.040Z,1028.0726
2019-04-21T00:19:28.172Z,1028.0546
2019-04-21T00:19:38.617Z,1028.0218
2019-04-21T00:19:49.640Z,1028.0201
2019-04-21T00:20:12.359Z,1028.0755
2019-04-21T00:20:23.609Z,1028.0771
2019-04-21T00:20:33.013Z,1028.0183
2019-04-21T00:20:44.506Z,1028.0407
2019-04-21T00:20:55.112Z,1028.0621
2019-04-21T00:21:14.724Z,1028.0244
2019-04-21T00:21:26.407Z,1028.0585
2019-04-21T00:21:38.416Z,1028.0339
2019-04-21T00:21:47.671Z,1028.0667
2019-04-21T00:22:08.429Z,1028.0582
2019-04-21T00:22:22.790Z,1028.0255
2019-04-21T00:22:33.830Z,1028.0187
2019-04-21T00:22:47.566Z,1028.0302
2019-04-21T00:22:56.390Z,1028.0283
2019-04-21T00:23:16.541Z,1028.0401
2019-04-21T00:23:27.360Z,1028.0135
2019-04-21T00:23:40.990Z,1028.0366
2019-04-21T00:23:55.959Z,1028.035
2019-04-21T00:24:04.748Z,1028.048
2019-04-21T00:24:15.925Z,1028.0463
2019-04-21T00:24:27.415Z,1028.0202
2019-04-21T00:24:44.209Z,1028.0531
2019-04-21T00:24:56.702Z,1028.0366
2019-04-21T00:25:11.570Z,1028.0449
2019-04-21T00:25:23.362Z,1028.03
2019-04-21T00:25:33.572Z,1028.0135
2019-04-21T00:25:45.751Z,1028.0366
2019-04-21T00:25:58.055Z,1028.0267
2019-04-21T00:26:07.442Z,1028.0513
2019-04-21T00:26:27.717Z,1028.0448
2019-04-21T00:26:43.580Z,1028.0023
2019-04-21T00:26:57.208Z,1028.0155
2019-04-21T00:27:05.069Z,1028.0645
2019-04-21T00:27:19.903Z,1028.043
2019-04-21T00:27:33.209Z,1028.0073
2019-04-21T00:27:46.296Z,1028.0219
2019-04-21T00:27:56.240Z,1028.0283
2019-04-21T00:28:13.831Z,1027.9825
2019-04-21T00:28:30.172Z,1028.0217
2019-04-21T00:28:40.615Z,1027.9925
2019-04-21T00:28:59.080Z,1028.0252
2019-04-21T00:29:08.949Z,1027.9959
2019-04-21T00:29:16.193Z,1028.0025
2019-04-21T00:29:33.771Z,1027.9792
2019-04-21T00:29:47.485Z,1027.986
2019-04-21T00:29:57.862Z,1027.9682
2019-04-21T00:30:10.580Z,1027.9537
2019-04-21T00:30:21.203Z,1027.9719
2019-04-21T00:30:33.856Z,1027.9605
2019-04-21T00:30:50.329Z,1027.9328
2019-04-21T00:30:59.998Z,1027.9788
2019-04-21T00:31:09.683Z,1027.9525
2019-04-21T00:31:24.185Z,1027.9888
2019-04-21T00:31:33.466Z,1027.9743
2019-04-21T00:31:45.336Z,1027.9729
2019-04-21T00:31:57.808Z,1027.9437
2019-04-21T00:32:09.871Z,1027.9569
2019-04-21T00:32:25.197Z,1027.9459
2019-04-21T00:32:35.086Z,1027.9449
2019-04-21T00:32:48.600Z,1027.937
2019-04-21T00:32:59.630Z,1027.9371
2019-04-21T00:33:08.930Z,1027.9837
2019-04-21T00:33:21.258Z,1027.9693
2019-04-21T00:33:32.346Z,1027.9797
2019-04-21T00:33:43.289Z,1027.9786
2019-04-21T00:33:53.683Z,1027.9937
2019-04-21T00:34:06.701Z,1027.9434
2019-04-21T00:34:19.560Z,1027.942
2019-04-21T00:34:32.130Z,1027.9737
2019-04-21T00:34:50.888Z,1027.9396
2019-04-21T00:35:04.605Z,1027.9417
2019-04-21T00:35:13.935Z,1027.929
2019-04-21T00:35:25.928Z,1027.9259
2019-04-21T00:35:43.849Z,1027.951
2019-04-21T00:35:54.820Z,1027.9151
2019-04-21T00:36:10.096Z,1027.9334
2019-04-21T00:36:20.513Z,1027.9091
2019-04-21T00:36:38.144Z,1027.9355
2019-04-21T00:36:50.170Z,1027.8999
2019-04-21T00:37:02.932Z,1027.9263
2019-04-21T00:37:15.103Z,1027.9443
2019-04-21T00:37:26.449Z,1027.9122
2019-04-21T00:37:53.032Z,1027.9844
2019-04-21T00:38:00.146Z,1027.9931
2019-04-21T00:38:16.795Z,1027.9799
2019-04-21T00:38:31.793Z,1027.987
2019-04-21T00:38:45.211Z,1027.9627
2019-04-21T00:39:06.487Z,1027.9382
2019-04-21T00:39:20.509Z,1028.0251
2019-04-21T00:39:28.481Z,1027.9975
2019-04-21T00:39:43.193Z,1028.0074
2019-04-21T00:39:55.548Z,1027.9964
2019-04-21T00:40:03.520Z,1027.9882
2019-04-21T00:40:27.027Z,1027.9624
2019-04-21T00:40:27.030Z,1027.9934
2019-04-21T00:40:41.254Z,1028.002
2019-04-21T00:40:53.671Z,1027.9759
2019-04-21T00:41:05.291Z,1028.03
2019-04-21T00:41:18.607Z,1028.0139
2019-04-21T00:41:29.259Z,1028.0239
2019-04-21T00:41:43.217Z,1028.0291
2019-04-21T00:41:53.543Z,1027.9915
2019-04-21T00:42:05.035Z,1028.0014
2019-04-21T00:42:17.986Z,1028.0162
2019-04-21T00:42:28.929Z,1028.0183
2019-04-21T00:42:42.850Z,1028.028
2019-04-21T00:42:55.258Z,1028.0001
2019-04-21T00:43:07.454Z,1028.0463
2019-04-21T00:43:19.232Z,1028.0189
2019-04-21T00:43:32.756Z,1028.0253
2019-04-21T00:43:44.591Z,1027.9981
2019-04-21T00:43:56.920Z,1028.0159
2019-04-21T00:44:08.340Z,1027.9572
2019-04-21T00:44:17.195Z,1027.9821
2019-04-21T00:44:29.128Z,1027.9772
2019-04-21T00:44:41.350Z,1027.9611
2019-04-21T00:45:01.660Z,1027.9794
2019-04-21T00:45:11.456Z,1027.9632
2019-04-21T00:45:23.241Z,1027.9877
2019-04-21T00:45:33.575Z,1027.9666
2019-04-21T00:45:47.961Z,1027.9291
2019-04-21T00:45:59.661Z,1027.9488
2019-04-21T00:46:10.681Z,1027.9395
2019-04-21T00:46:30.629Z,1027.9901
2019-04-21T00:46:43.507Z,1027.9267
2019-04-21T00:46:55.684Z,1027.9642
2019-04-21T00:47:01.687Z,1027.9497
2019-04-21T00:47:30.155Z,1027.9482
2019-04-21T00:47:45.441Z,1027.8975
2019-04-21T00:47:50.858Z,1027.9484
2019-04-21T00:48:03.643Z,1027.9155
2019-04-21T00:48:22.806Z,1027.8941
2019-04-21T00:48:34.191Z,1027.9254
2019-04-21T00:48:47.395Z,1027.9124
2019-04-21T00:48:56.288Z,1027.901
2019-04-21T00:49:05.442Z,1027.9008
2019-04-21T00:49:19.248Z,1027.9176
2019-04-21T00:49:26.755Z,1027.8829
2019-04-21T00:49:59.922Z,1027.8997
2019-04-21T00:50:10.553Z,1027.8863
2019-04-21T00:50:31.223Z,1027.8618
2019-04-21T00:50:50.806Z,1027.8801
2019-04-21T00:51:09.580Z,1027.8833
2019-04-21T00:51:16.046Z,1027.885
2019-04-21T00:51:33.015Z,1027.8773
2019-04-21T00:51:38.272Z,1027.8786
2019-04-21T00:51:53.200Z,1027.8737
2019-04-21T00:52:01.818Z,1027.8687
2019-04-21T00:52:20.703Z,1027.8476
2019-04-21T00:52:56.130Z,1027.846
2019-04-21T00:52:56.131Z,1027.8608
2019-04-21T00:52:59.182Z,1027.8248
2019-04-21T00:53:10.172Z,1027.8377
2019-04-21T00:53:35.229Z,1027.864
2019-04-21T00:53:43.210Z,1027.8262
2019-04-21T00:53:57.731Z,1027.7987
2019-04-21T00:54:08.692Z,1027.836
2019-04-21T00:54:24.393Z,1027.8134
2019-04-21T00:54:32.604Z,1027.8262
2019-04-21T00:54:47.971Z,1027.8084
2019-04-21T00:55:07.493Z,1027.8443
2019-04-21T00:55:19.920Z,1027.8182
2019-04-21T00:55:26.522Z,1027.8032
2019-04-21T00:55:38.354Z,1027.8359
2019-04-21T00:56:03.109Z,1027.8195
2019-04-21T00:56:15.100Z,1027.7685
2019-04-21T00:56:27.285Z,1027.8
2019-04-21T00:56:39.309Z,1027.831
2019-04-21T00:56:55.966Z,1027.8249
2019-04-21T00:57:10.403Z,1027.8148
2019-04-21T00:57:16.203Z,1027.8117
2019-04-21T00:57:32.213Z,1027.8327
2019-04-21T00:57:44.674Z,1027.8084
2019-04-21T00:57:55.847Z,1027.8117
2019-04-21T00:58:10.321Z,1027.7985
2019-04-21T00:58:22.305Z,1027.8004
2019-04-21T00:58:32.968Z,1027.8284
2019-04-21T00:58:45.164Z,1027.7646
2019-04-21T00:58:59.119Z,1027.7514
2019-04-21T00:59:13.463Z,1027.7973
2019-04-21T00:59:25.457Z,1027.776
2019-04-21T00:59:39.877Z,1027.781
2019-04-21T00:59:49.850Z,1027.7501
2019-04-21T00:59:58.971Z,1027.8172
2019-04-21T01:00:17.603Z,1027.809
2019-04-21T01:00:26.866Z,1027.7581
2019-04-21T01:00:38.315Z,1027.783
2019-04-21T01:00:56.919Z,1027.7698
2019-04-21T01:01:06.981Z,1027.7487
2019-04-21T01:01:19.644Z,1027.7684
2019-04-21T01:01:31.025Z,1027.7911
2019-04-21T01:01:43.374Z,1027.7506
2019-04-21T01:01:53.684Z,1027.7637
2019-04-21T01:02:08.891Z,1027.736
2019-04-21T01:02:22.401Z,1027.7052
2019-04-21T01:02:44.337Z,1027.7524
2019-04-21T01:03:00.763Z,1027.7165
2019-04-21T01:03:20.001Z,1027.7087
2019-04-21T01:03:31.216Z,1027.72
2019-04-21T01:03:45.543Z,1027.7166
2019-04-21T01:03:57.333Z,1027.7166
2019-04-21T01:04:07.694Z,1027.6824
2019-04-21T01:04:23.303Z,1027.689
2019-04-21T01:04:36.695Z,1027.6876
2019-04-21T01:04:49.279Z,1027.7333
2019-04-21T01:05:04.524Z,1027.699
2019-04-21T01:05:16.323Z,1027.6793
2019-04-21T01:05:25.270Z,1027.7023
2019-04-21T01:05:40.936Z,1027.7041
2019-04-21T01:05:51.370Z,1027.6876
2019-04-21T01:06:02.986Z,1027.727
2019-04-21T01:06:15.859Z,1027.6616
2019-04-21T01:06:28.503Z,1027.6713
2019-04-21T01:06:41.414Z,1027.6895
2019-04-21T01:06:54.231Z,1027.6729
2019-04-21T01:07:07.030Z,1027.7075
2019-04-21T01:07:19.172Z,1027.6832
2019-04-21T01:07:31.246Z,1027.6964
2019-04-21T01:07:45.322Z,1027.6538
2019-04-21T01:07:57.598Z,1027.6556
2019-04-21T01:08:09.307Z,1027.6899
2019-04-21T01:08:35.217Z,1027.6522
2019-04-21T01:08:45.547Z,1027.618
2019-04-21T01:08:58.898Z,1027.6527
2019-04-21T01:09:07.457Z,1027.6577
2019-04-21T01:09:19.295Z,1027.6363
2019-04-21T01:09:31.551Z,1027.6674
2019-04-21T01:09:48.398Z,1027.6954
2019-04-21T01:09:58.182Z,1027.6395
2019-04-21T01:10:08.995Z,1027.6937
2019-04-21T01:10:24.002Z,1027.6708
2019-04-21T01:10:34.544Z,1027.6789
2019-04-21T01:10:49.794Z,1027.6268
2019-04-21T01:11:12.181Z,1027.6381
2019-04-21T01:11:23.508Z,1027.6987
2019-04-21T01:11:31.066Z,1027.6578
2019-04-21T01:11:49.081Z,1027.6578
2019-04-21T01:12:01.036Z,1027.6741
2019-04-21T01:12:12.094Z,1027.6203
2019-04-21T01:12:25.233Z,1027.6676
2019-04-21T01:12:41.430Z,1027.6334
2019-04-21T01:12:54.488Z,1027.6513
2019-04-21T01:13:09.196Z,1027.6826
2019-04-21T01:13:21.218Z,1027.6647
2019-04-21T01:13:31.929Z,1027.6236
2019-04-21T01:13:45.244Z,1027.6123
2019-04-21T01:13:57.831Z,1027.645
2019-04-21T01:14:11.598Z,1027.673
2019-04-21T01:14:29.620Z,1027.6221
2019-04-21T01:14:40.557Z,1027.6535
2019-04-21T01:14:48.269Z,1027.6273
2019-04-21T01:15:02.669Z,1027.6309
2019-04-21T01:15:18.153Z,1027.6228
2019-04-21T01:15:30.423Z,1027.6752
2019-04-21T01:15:42.185Z,1027.6561
2019-04-21T01:15:52.655Z,1027.6282
2019-04-21T01:16:05.400Z,1027.6578
2019-04-21T01:16:20.138Z,1027.6284
2019-04-21T01:16:32.999Z,1027.6221
2019-04-21T01:16:45.165Z,1027.6304
2019-04-21T01:16:57.205Z,1027.6584
2019-04-21T01:17:12.729Z,1027.6131
2019-04-21T01:17:21.536Z,1027.5999
2019-04-21T01:17:35.069Z,1027.5903
2019-04-21T01:17:45.850Z,1027.5969
2019-04-21T01:17:55.844Z,1027.6268
2019-04-21T01:18:08.784Z,1027.5988
2019-04-21T01:18:26.023Z,1027.5761
2019-04-21T01:18:36.718Z,1027.5667
2019-04-21T01:18:49.112Z,1027.5844
2019-04-21T01:19:00.323Z,1027.5488
2019-04-21T01:19:15.594Z,1027.5358
2019-04-21T01:19:24.928Z,1027.575
2019-04-21T01:19:36.911Z,1027.5981
2019-04-21T01:19:50.477Z,1027.5852
2019-04-21T01:20:01.013Z,1027.5458
2019-04-21T01:20:12.797Z,1027.5887
2019-04-21T01:20:17.121Z,1027.5642
2019-04-21T01:20:24.814Z,1027.5561
2019-04-21T01:20:36.698Z,1027.5415
2019-04-21T01:20:48.572Z,1027.5838
2019-04-21T01:21:00.452Z,1027.5383
2019-04-21T01:21:14.179Z,1027.6136
2019-04-21T01:21:25.103Z,1027.5301
2019-04-21T01:21:36.959Z,1027.5975
2019-04-21T01:21:48.826Z,1027.5695
2019-04-21T01:22:00.703Z,1027.5382
2019-04-21T01:22:12.586Z,1027.5826
2019-04-21T01:22:24.478Z,1027.5727
2019-04-21T01:22:36.366Z,1027.6401
2019-04-21T01:22:48.283Z,1027.617
2019-04-21T01:23:00.320Z,1027.5512
2019-04-21T01:23:12.692Z,1027.5876
2019-04-21T01:23:23.891Z,1027.5955
2019-04-21T01:23:35.855Z,1027.5891
2019-04-21T01:23:48.603Z,1027.5483
2019-04-21T01:24:05.361Z,1027.6003
2019-04-21T01:24:19.623Z,1027.5794
2019-04-21T01:24:29.352Z,1027.5776
2019-04-21T01:24:43.020Z,1027.5122
2019-04-21T01:24:59.946Z,1027.5347
2019-04-21T01:25:11.709Z,1027.6054
2019-04-21T01:25:25.490Z,1027.5612
2019-04-21T01:25:36.773Z,1027.5561
2019-04-21T01:26:06.170Z,1027.5657
2019-04-21T01:26:22.452Z,1027.5362
2019-04-21T01:26:32.204Z,1027.5245
2019-04-21T01:26:43.599Z,1027.5081
2019-04-21T01:26:56.654Z,1027.5161
2019-04-21T01:27:08.560Z,1027.5324
2019-04-21T01:27:22.146Z,1027.5454
2019-04-21T01:27:45.515Z,1027.5389
2019-04-21T01:27:53.558Z,1027.544
2019-04-21T01:28:03.402Z,1027.5358
2019-04-21T01:28:18.491Z,1027.4687
2019-04-21T01:28:33.861Z,1027.5126
2019-04-21T01:28:44.668Z,1027.5128
2019-04-21T01:28:59.664Z,1027.5067
2019-04-21T01:29:11.685Z,1027.4836
2019-04-21T01:29:24.718Z,1027.5064
2019-04-21T01:29:41.275Z,1027.4837
2019-04-21T01:29:52.875Z,1027.5083
2019-04-21T01:30:05.496Z,1027.5015
2019-04-21T01:30:16.164Z,1027.4787
2019-04-21T01:30:28.222Z,1027.4787
2019-04-21T01:30:44.672Z,1027.4804
2019-04-21T01:30:56.664Z,1027.4904
2019-04-21T01:31:08.579Z,1027.4644
2019-04-21T01:31:16.802Z,1027.5019
2019-04-21T01:31:32.557Z,1027.4593
2019-04-21T01:31:41.459Z,1027.4677
2019-04-21T01:32:04.928Z,1027.5493
2019-04-21T01:32:17.614Z,1027.5087
2019-04-21T01:32:29.073Z,1027.4742
2019-04-21T01:32:41.988Z,1027.4825
2019-04-21T01:32:52.706Z,1027.4793
2019-04-21T01:33:07.048Z,1027.4547
2019-04-21T01:33:21.249Z,1027.4842
2019-04-21T01:33:32.216Z,1027.4403
2019-04-21T01:33:44.202Z,1027.4382
2019-04-21T01:33:56.004Z,1027.4796
2019-04-21T01:34:08.168Z,1027.4744
2019-04-21T01:34:20.328Z,1027.5041
2019-04-21T01:34:32.813Z,1027.4631
2019-04-21T01:34:44.959Z,1027.4699
2019-04-21T01:35:02.216Z,1027.4945
2019-04-21T01:35:14.472Z,1027.4664
2019-04-21T01:35:25.243Z,1027.447
2019-04-21T01:35:39.225Z,1027.4648
2019-04-21T01:35:47.777Z,1027.4321
2019-04-21T01:35:57.809Z,1027.4123
2019-04-21T01:36:13.884Z,1027.4206
2019-04-21T01:36:23.101Z,1027.4239
2019-04-21T01:36:38.287Z,1027.4321
2019-04-21T01:36:53.983Z,1027.4388
2019-04-21T01:37:03.703Z,1027.4078
2019-04-21T01:37:17.696Z,1027.4504
2019-04-21T01:37:39.749Z,1027.4241
2019-04-21T01:37:49.063Z,1027.4371
2019-04-21T01:38:01.693Z,1027.421
2019-04-21T01:38:13.688Z,1027.3837
2019-04-21T01:38:28.694Z,1027.4508
2019-04-21T01:38:39.600Z,1027.4282
2019-04-21T01:38:53.558Z,1027.3902
2019-04-21T01:39:05.111Z,1027.3609
2019-04-21T01:39:19.423Z,1027.3695
2019-04-21T01:39:34.029Z,1027.4598
2019-04-21T01:39:46.796Z,1027.4548
2019-04-21T01:39:59.899Z,1027.4027
2019-04-21T01:40:16.031Z,1027.4206
2019-04-21T01:40:22.494Z,1027.398
2019-04-21T01:40:44.509Z,1027.4
2019-04-21T01:40:52.550Z,1027.4113
2019-04-21T01:40:58.915Z,1027.4279
2019-04-21T01:41:12.781Z,1027.3922
2019-04-21T01:41:25.301Z,1027.4119
2019-04-21T01:41:38.743Z,1027.409
2019-04-21T01:41:50.628Z,1027.4073
2019-04-21T01:42:03.028Z,1027.419
2019-04-21T01:42:15.576Z,1027.3994
2019-04-21T01:42:25.441Z,1027.4128
2019-04-21T01:42:37.967Z,1027.4359
2019-04-21T01:42:55.483Z,1027.4116
2019-04-21T01:43:07.283Z,1027.374
2019-04-21T01:43:18.474Z,1027.4119
2019-04-21T01:43:27.411Z,1027.4284
2019-04-21T01:43:45.009Z,1027.427
2019-04-21T01:43:54.372Z,1027.4056
2019-04-21T01:44:12.003Z,1027.4318
2019-04-21T01:44:29.446Z,1027.4583
2019-04-21T01:44:52.121Z,1027.4272
2019-04-21T01:44:52.122Z,1027.4306
2019-04-21T01:44:58.028Z,1027.4584
2019-04-21T01:45:14.450Z,1027.4256
2019-04-21T01:45:26.143Z,1027.4091
2019-04-21T01:45:36.796Z,1027.4223
2019-04-21T01:45:48.530Z,1027.3929
2019-04-21T01:46:05.290Z,1027.4078
2019-04-21T01:46:13.751Z,1027.3881
2019-04-21T01:46:29.226Z,1027.4404
2019-04-21T01:46:39.090Z,1027.3881
2019-04-21T01:46:51.685Z,1027.3913
2019-04-21T01:47:05.908Z,1027.4108
2019-04-21T01:47:15.695Z,1027.4045
2019-04-21T01:47:30.868Z,1027.4042
2019-04-21T01:47:45.800Z,1027.3978
2019-04-21T01:47:55.836Z,1027.4077
2019-04-21T01:48:08.889Z,1027.4191
2019-04-21T01:48:19.352Z,1027.4011
2019-04-21T01:48:34.026Z,1027.3944
2019-04-21T01:48:49.033Z,1027.4207
2019-04-21T01:48:56.437Z,1027.4012
2019-04-21T01:49:07.636Z,1027.399
2019-04-21T01:49:19.031Z,1027.4239
2019-04-21T01:49:34.219Z,1027.427
2019-04-21T01:49:47.101Z,1027.4136
2019-04-21T01:49:58.899Z,1027.4121
2019-04-21T01:50:11.684Z,1027.4057
2019-04-21T01:50:34.261Z,1027.4006
2019-04-21T01:50:46.156Z,1027.4431
2019-04-21T01:50:55.122Z,1027.4527
2019-04-21T01:51:08.375Z,1027.4609
2019-04-21T01:51:21.972Z,1027.4689
2019-04-21T01:51:32.605Z,1027.4506
2019-04-21T01:52:02.419Z,1027.4425
2019-04-21T01:52:17.441Z,1027.4506
2019-04-21T01:52:23.526Z,1027.4439
2019-04-21T01:52:38.102Z,1027.4294
2019-04-21T01:52:49.715Z,1027.4046
2019-04-21T01:52:55.706Z,1027.4356
2019-04-21T01:53:10.729Z,1027.4158
2019-04-21T01:53:23.758Z,1027.4305
2019-04-21T01:53:36.262Z,1027.4027
2019-04-21T01:53:48.001Z,1027.4108
2019-04-21T01:54:03.162Z,1027.4204
2019-04-21T01:54:14.296Z,1027.4401
2019-04-21T01:54:28.357Z,1027.4202
2019-04-21T01:54:40.212Z,1027.4072
2019-04-21T01:54:47.910Z,1027.4072
2019-04-21T01:55:05.846Z,1027.3957
2019-04-21T01:55:17.554Z,1027.4055
2019-04-21T01:55:28.729Z,1027.4168
2019-04-21T01:55:42.960Z,1027.4005
2019-04-21T01:55:53.946Z,1027.4267
2019-04-21T01:56:07.581Z,1027.3937
2019-04-21T01:56:16.692Z,1027.4117
2019-04-21T01:56:33.719Z,1027.3951
2019-04-21T01:56:44.304Z,1027.441
2019-04-21T01:56:55.002Z,1027.3869
2019-04-21T01:57:07.134Z,1027.3837
2019-04-21T01:57:22.228Z,1027.3656
2019-04-21T01:57:33.954Z,1027.3394
2019-04-21T01:57:42.342Z,1027.4049
2019-04-21T01:57:57.370Z,1027.3787
2019-04-21T01:58:10.704Z,1027.3786
2019-04-21T01:58:18.104Z,1027.362
2019-04-21T01:58:33.097Z,1027.3554
2019-04-21T01:58:42.423Z,1027.3145
2019-04-21T01:58:56.085Z,1027.3388
2019-04-21T01:59:06.530Z,1027.3831
2019-04-21T01:59:26.698Z,1027.3765
2019-04-21T01:59:34.727Z,1027.3829
2019-04-21T01:59:50.143Z,1027.3403
2019-04-21T01:59:59.609Z,1027.3271
2019-04-21T02:00:12.924Z,1027.2976
2019-04-21T02:00:32.505Z,1027.3582
2019-04-21T02:00:48.124Z,1027.3353
2019-04-21T02:00:56.352Z,1027.3369
2019-04-21T02:01:08.378Z,1027.3321
2019-04-21T02:01:28.261Z,1027.3354
2019-04-21T02:01:38.413Z,1027.3171
2019-04-21T02:01:52.040Z,1027.3415
2019-04-21T02:02:04.940Z,1027.3452
2019-04-21T02:02:16.895Z,1027.3238
2019-04-21T02:02:34.632Z,1027.3299
2019-04-21T02:02:43.119Z,1027.3105
2019-04-21T02:02:58.877Z,1027.3238
2019-04-21T02:03:20.851Z,1027.3006
2019-04-21T02:03:40.486Z,1027.3365
2019-04-21T02:03:52.388Z,1027.3186
2019-04-21T02:03:59.540Z,1027.2907
2019-04-21T02:04:13.648Z,1027.3022
2019-04-21T02:04:29.071Z,1027.2874
2019-04-21T02:04:41.037Z,1027.3218
2019-04-21T02:04:55.619Z,1027.3218
2019-04-21T02:05:09.950Z,1027.2548
2019-04-21T02:05:25.696Z,1027.2382
2019-04-21T02:05:36.179Z,1027.2843
2019-04-21T02:05:43.770Z,1027.3314
2019-04-21T02:06:16.961Z,1027.274
2019-04-21T02:06:20.534Z,1027.2869
2019-04-21T02:06:32.947Z,1027.2691
2019-04-21T02:06:50.054Z,1027.2397
2019-04-21T02:07:02.630Z,1027.2443
2019-04-21T02:07:14.459Z,1027.2413
2019-04-21T02:07:26.571Z,1027.267
2019-04-21T02:07:38.789Z,1027.2198
2019-04-21T02:07:48.969Z,1027.2344
2019-04-21T02:08:00.617Z,1027.2132
2019-04-21T02:08:14.659Z,1027.2343
2019-04-21T02:08:27.088Z,1027.2392
2019-04-21T02:08:41.287Z,1027.2504
2019-04-21T02:08:53.091Z,1027.2325
2019-04-21T02:08:57.563Z,1027.203
2019-04-21T02:09:18.724Z,1027.2371
2019-04-21T02:09:30.625Z,1027.2208
2019-04-21T02:09:49.072Z,1027.2421
2019-04-21T02:10:04.598Z,1027.2255
2019-04-21T02:10:17.459Z,1027.2568
2019-04-21T02:10:34.101Z,1027.2124
2019-04-21T02:10:39.395Z,1027.1976
2019-04-21T02:10:54.399Z,1027.222
2019-04-21T02:11:04.996Z,1027.2331
2019-04-21T02:11:16.732Z,1027.2365
2019-04-21T02:11:29.808Z,1027.228
2019-04-21T02:11:43.037Z,1027.228
2019-04-21T02:11:54.572Z,1027.2408
2019-04-21T02:12:08.512Z,1027.2114
2019-04-21T02:12:18.650Z,1027.2359
2019-04-21T02:12:31.312Z,1027.216
2019-04-21T02:12:44.202Z,1027.2473
2019-04-21T02:12:56.361Z,1027.2257
2019-04-21T02:13:08.170Z,1027.1977
2019-04-21T02:13:21.232Z,1027.232
2019-04-21T02:13:31.823Z,1027.2158
2019-04-21T02:13:57.056Z,1027.2321
2019-04-21T02:14:09.729Z,1027.2203
2019-04-21T02:14:14.556Z,1027.2397
2019-04-21T02:14:30.913Z,1027.2386
2019-04-21T02:14:45.277Z,1027.227
2019-04-21T02:14:58.018Z,1027.1776
2019-04-21T02:15:10.948Z,1027.238
2019-04-21T02:15:23.312Z,1027.238
2019-04-21T02:15:35.841Z,1027.2723
2019-04-21T02:15:48.606Z,1027.2429
2019-04-21T02:16:00.444Z,1027.2446
2019-04-21T02:16:11.091Z,1027.2054
2019-04-21T02:16:22.582Z,1027.2281
2019-04-21T02:16:33.841Z,1027.2281
2019-04-21T02:16:46.470Z,1027.2183
2019-04-21T02:17:05.080Z,1027.1937
2019-04-21T02:17:15.971Z,1027.2381
2019-04-21T02:17:27.569Z,1027.2036
2019-04-21T02:17:40.495Z,1027.228
2019-04-21T02:17:53.448Z,1027.2069
2019-04-21T02:18:05.886Z,1027.2382
2019-04-21T02:18:16.815Z,1027.2346
2019-04-21T02:18:27.111Z,1027.2297
2019-04-21T02:18:43.408Z,1027.2314
2019-04-21T02:18:54.294Z,1027.2132
2019-04-21T02:19:04.225Z,1027.1706
2019-04-21T02:19:16.403Z,1027.2231
2019-04-21T02:19:31.067Z,1027.2147
2019-04-21T02:19:40.895Z,1027.2133
2019-04-21T02:19:54.987Z,1027.1934
2019-04-21T02:20:06.409Z,1027.1756
2019-04-21T02:20:17.798Z,1027.1833
2019-04-21T02:20:31.597Z,1027.1835
2019-04-21T02:20:40.860Z,1027.1685
2019-04-21T02:20:52.544Z,1027.1851
2019-04-21T02:21:06.989Z,1027.1737
2019-04-21T02:21:31.238Z,1027.1982
2019-04-21T02:21:37.782Z,1027.1884
2019-04-21T02:21:47.109Z,1027.1965
2019-04-21T02:21:58.988Z,1027.2276
2019-04-21T02:22:27.076Z,1027.2227
2019-04-21T02:22:45.792Z,1027.2049
2019-04-21T02:23:04.499Z,1027.2015
2019-04-21T02:23:17.496Z,1027.244
2019-04-21T02:23:37.659Z,1027.2131
2019-04-21T02:23:45.493Z,1027.177
2019-04-21T02:24:11.252Z,1027.2192
2019-04-21T02:24:11.253Z,1027.208
2019-04-21T02:24:20.261Z,1027.1981
2019-04-21T02:24:34.715Z,1027.1768
2019-04-21T02:24:49.183Z,1027.2014
2019-04-21T02:25:00.822Z,1027.2062
2019-04-21T02:25:19.618Z,1027.2442
2019-04-21T02:25:25.666Z,1027.1999
2019-04-21T02:25:38.235Z,1027.2198
2019-04-21T02:25:50.430Z,1027.1477
2019-04-21T02:26:03.108Z,1027.1232
2019-04-21T02:26:15.910Z,1027.1528
2019-04-21T02:26:26.470Z,1027.1608
2019-04-21T02:26:39.650Z,1027.1528
2019-04-21T02:26:52.560Z,1027.1859
2019-04-21T02:27:06.235Z,1027.1776
2019-04-21T02:27:18.761Z,1027.1795
2019-04-21T02:27:29.425Z,1027.1876
2019-04-21T02:27:42.519Z,1027.1304
2019-04-21T02:27:56.300Z,1027.173
2019-04-21T02:28:11.208Z,1027.1046
2019-04-21T02:28:27.856Z,1027.1485
2019-04-21T02:28:42.214Z,1027.1439